sensor_id;sensor_type;location;lat;lon;timestamp;P1;durP1;ratioP1;P2;durP2;ratioP2
47894;SDS011;33653;52.302;8.134;2023-05-16T00:02:23;3.75;;;2.25;;
47894;SDS011;33653;52.302;8.134;2023-05-16T00:04:51;2.72;;;1.90;;
47894;SDS011;33653;52.302;8.134;2023-05-16T00:07:20;3.42;;;2.42;;
47894;SDS011;33653;52.302;8.134;2023-05-16T00:09:48;4.28;;;2.60;;
47894;SDS011;33653;52.302;8.134;2023-05-16T00:12:17;4.30;;;2.15;;
47894;SDS011;33653;52.302;8.134;2023-05-16T00:14:45;2.50;;;2.05;;
47894;SDS011;33653;52.302;8.134;2023-05-16T00:17:15;5.60;;;2.20;;
47894;SDS011;33653;52.302;8.134;2023-05-16T00:19:43;2.67;;;2.13;;
47894;SDS011;33653;52.302;8.134;2023-05-16T00:24:43;3.17;;;2.42;;
47894;SDS011;33653;52.302;8.134;2023-05-16T00:27:11;3.05;;;1.92;;
47894;SDS011;33653;52.302;8.134;2023-05-16T00:29:39;2.40;;;2.20;;
47894;SDS011;33653;52.302;8.134;2023-05-16T00:32:08;3.60;;;2.53;;
47894;SDS011;33653;52.302;8.134;2023-05-16T00:34:36;3.28;;;1.95;;
47894;SDS011;33653;52.302;8.134;2023-05-16T00:37:05;2.33;;;1.92;;
47894;SDS011;33653;52.302;8.134;2023-05-16T00:39:33;3.67;;;2.20;;
47894;SDS011;33653;52.302;8.134;2023-05-16T00:42:01;3.53;;;2.10;;
47894;SDS011;33653;52.302;8.134;2023-05-16T00:44:30;1.40;;;1.30;;
47894;SDS011;33653;52.302;8.134;2023-05-16T00:46:59;2.05;;;1.60;;
47894;SDS011;33653;52.302;8.134;2023-05-16T00:49:28;1.60;;;1.50;;
47894;SDS011;33653;52.302;8.134;2023-05-16T00:51:57;1.63;;;1.52;;
47894;SDS011;33653;52.302;8.134;2023-05-16T00:54:27;1.20;;;1.10;;
47894;SDS011;33653;52.302;8.134;2023-05-16T00:56:57;4.32;;;1.80;;
47894;SDS011;33653;52.302;8.134;2023-05-16T00:59:25;2.05;;;1.55;;
47894;SDS011;33653;52.302;8.134;2023-05-16T01:01:54;3.28;;;1.73;;
47894;SDS011;33653;52.302;8.134;2023-05-16T01:04:27;5.82;;;2.40;;
47894;SDS011;33653;52.302;8.134;2023-05-16T01:06:56;5.57;;;1.95;;
47894;SDS011;33653;52.302;8.134;2023-05-16T01:09:24;3.15;;;1.95;;
47894;SDS011;33653;52.302;8.134;2023-05-16T01:20:53;3.80;;;2.00;;
47894;SDS011;33653;52.302;8.134;2023-05-16T01:28:51;2.90;;;2.00;;
47894;SDS011;33653;52.302;8.134;2023-05-16T01:31:21;5.13;;;1.60;;
47894;SDS011;33653;52.302;8.134;2023-05-16T01:33:50;1.60;;;1.50;;
47894;SDS011;33653;52.302;8.134;2023-05-16T01:36:20;5.03;;;1.35;;
47894;SDS011;33653;52.302;8.134;2023-05-16T01:38:58;3.42;;;1.77;;
47894;SDS011;33653;52.302;8.134;2023-05-16T01:44:49;3.72;;;1.75;;
47894;SDS011;33653;52.302;8.134;2023-05-16T01:47:26;4.90;;;1.30;;
47894;SDS011;33653;52.302;8.134;2023-05-16T01:50:03;3.17;;;1.55;;
47894;SDS011;33653;52.302;8.134;2023-05-16T01:56:07;5.97;;;1.50;;
47894;SDS011;33653;52.302;8.134;2023-05-16T01:58:40;6.75;;;1.67;;
47894;SDS011;33653;52.302;8.134;2023-05-16T02:01:09;3.60;;;1.73;;
47894;SDS011;33653;52.302;8.134;2023-05-16T02:03:40;2.90;;;1.70;;
47894;SDS011;33653;52.302;8.134;2023-05-16T02:06:09;5.78;;;1.77;;
47894;SDS011;33653;52.302;8.134;2023-05-16T02:08:38;4.88;;;1.52;;
47894;SDS011;33653;52.302;8.134;2023-05-16T02:11:06;3.70;;;1.75;;
47894;SDS011;33653;52.302;8.134;2023-05-16T02:13:34;2.17;;;1.52;;
47894;SDS011;33653;52.302;8.134;2023-05-16T02:16:03;1.55;;;1.45;;
47894;SDS011;33653;52.302;8.134;2023-05-16T02:18:31;4.47;;;1.77;;
47894;SDS011;33653;52.302;8.134;2023-05-16T02:21:00;4.97;;;1.73;;
47894;SDS011;33653;52.302;8.134;2023-05-16T02:23:28;3.47;;;1.60;;
47894;SDS011;33653;52.302;8.134;2023-05-16T02:25:56;7.22;;;2.20;;
47894;SDS011;33653;52.302;8.134;2023-05-16T02:28:24;4.55;;;1.70;;
47894;SDS011;33653;52.302;8.134;2023-05-16T02:30:59;3.47;;;1.70;;
47894;SDS011;33653;52.302;8.134;2023-05-16T02:33:28;5.43;;;1.73;;
47894;SDS011;33653;52.302;8.134;2023-05-16T02:35:56;4.25;;;1.80;;
47894;SDS011;33653;52.302;8.134;2023-05-16T02:38:25;5.93;;;1.73;;
47894;SDS011;33653;52.302;8.134;2023-05-16T02:40:55;2.92;;;1.83;;
47894;SDS011;33653;52.302;8.134;2023-05-16T02:43:23;5.57;;;1.85;;
47894;SDS011;33653;52.302;8.134;2023-05-16T02:45:51;5.70;;;1.88;;
47894;SDS011;33653;52.302;8.134;2023-05-16T02:48:20;3.75;;;2.00;;
47894;SDS011;33653;52.302;8.134;2023-05-16T02:50:48;7.25;;;2.00;;
47894;SDS011;33653;52.302;8.134;2023-05-16T02:53:16;7.28;;;1.83;;
47894;SDS011;33653;52.302;8.134;2023-05-16T02:55:45;7.55;;;1.65;;
47894;SDS011;33653;52.302;8.134;2023-05-16T02:58:13;6.30;;;1.88;;
47894;SDS011;33653;52.302;8.134;2023-05-16T03:00:41;4.20;;;1.67;;
47894;SDS011;33653;52.302;8.134;2023-05-16T03:03:10;5.25;;;1.95;;
47894;SDS011;33653;52.302;8.134;2023-05-16T03:05:40;4.63;;;1.90;;
47894;SDS011;33653;52.302;8.134;2023-05-16T03:08:08;5.82;;;1.77;;
47894;SDS011;33653;52.302;8.134;2023-05-16T03:10:37;5.72;;;1.67;;
47894;SDS011;33653;52.302;8.134;2023-05-16T03:13:06;2.47;;;1.50;;
47894;SDS011;33653;52.302;8.134;2023-05-16T03:15:34;4.97;;;1.98;;
47894;SDS011;33653;52.302;8.134;2023-05-16T03:18:02;10.70;;;2.47;;
47894;SDS011;33653;52.302;8.134;2023-05-16T03:20:31;6.47;;;2.38;;
47894;SDS011;33653;52.302;8.134;2023-05-16T03:22:59;8.57;;;1.95;;
47894;SDS011;33653;52.302;8.134;2023-05-16T03:25:28;4.82;;;1.98;;
47894;SDS011;33653;52.302;8.134;2023-05-16T03:27:56;6.32;;;2.00;;
47894;SDS011;33653;52.302;8.134;2023-05-16T03:30:24;5.88;;;1.92;;
47894;SDS011;33653;52.302;8.134;2023-05-16T03:32:53;6.45;;;1.73;;
47894;SDS011;33653;52.302;8.134;2023-05-16T03:35:22;7.13;;;2.97;;
47894;SDS011;33653;52.302;8.134;2023-05-16T03:37:50;10.65;;;2.05;;
47894;SDS011;33653;52.302;8.134;2023-05-16T03:40:19;4.25;;;1.95;;
47894;SDS011;33653;52.302;8.134;2023-05-16T03:42:47;5.90;;;2.25;;
47894;SDS011;33653;52.302;8.134;2023-05-16T03:45:16;7.00;;;1.95;;
47894;SDS011;33653;52.302;8.134;2023-05-16T03:47:44;10.30;;;2.95;;
47894;SDS011;33653;52.302;8.134;2023-05-16T03:50:12;2.85;;;1.75;;
47894;SDS011;33653;52.302;8.134;2023-05-16T03:52:41;4.38;;;2.00;;
47894;SDS011;33653;52.302;8.134;2023-05-16T03:55:10;2.35;;;2.08;;
47894;SDS011;33653;52.302;8.134;2023-05-16T03:57:41;2.25;;;1.67;;
47894;SDS011;33653;52.302;8.134;2023-05-16T04:00:09;6.70;;;2.25;;
47894;SDS011;33653;52.302;8.134;2023-05-16T04:02:39;6.22;;;2.03;;
47894;SDS011;33653;52.302;8.134;2023-05-16T04:05:08;6.10;;;2.20;;
47894;SDS011;33653;52.302;8.134;2023-05-16T04:07:37;8.48;;;1.90;;
47894;SDS011;33653;52.302;8.134;2023-05-16T04:10:06;5.95;;;1.83;;
47894;SDS011;33653;52.302;8.134;2023-05-16T04:12:35;3.10;;;1.88;;
47894;SDS011;33653;52.302;8.134;2023-05-16T04:15:04;3.97;;;1.48;;
47894;SDS011;33653;52.302;8.134;2023-05-16T04:17:33;9.05;;;1.95;;
47894;SDS011;33653;52.302;8.134;2023-05-16T04:20:02;8.15;;;1.73;;
47894;SDS011;33653;52.302;8.134;2023-05-16T04:22:31;10.57;;;2.10;;
47894;SDS011;33653;52.302;8.134;2023-05-16T04:24:59;5.60;;;2.10;;
47894;SDS011;33653;52.302;8.134;2023-05-16T04:27:27;1.73;;;1.42;;
47894;SDS011;33653;52.302;8.134;2023-05-16T04:29:57;6.18;;;1.33;;
47894;SDS011;33653;52.302;8.134;2023-05-16T04:32:25;8.88;;;2.63;;
47894;SDS011;33653;52.302;8.134;2023-05-16T04:34:55;3.83;;;1.77;;
47894;SDS011;33653;52.302;8.134;2023-05-16T04:37:23;7.13;;;2.17;;
47894;SDS011;33653;52.302;8.134;2023-05-16T04:39:51;4.18;;;1.45;;
47894;SDS011;33653;52.302;8.134;2023-05-16T04:42:21;7.93;;;1.95;;
47894;SDS011;33653;52.302;8.134;2023-05-16T04:44:50;10.13;;;2.17;;
47894;SDS011;33653;52.302;8.134;2023-05-16T04:47:18;9.98;;;2.38;;
47894;SDS011;33653;52.302;8.134;2023-05-16T04:49:47;3.55;;;1.42;;
47894;SDS011;33653;52.302;8.134;2023-05-16T04:52:15;5.35;;;1.50;;
47894;SDS011;33653;52.302;8.134;2023-05-16T04:54:44;4.97;;;1.90;;
47894;SDS011;33653;52.302;8.134;2023-05-16T04:57:12;4.95;;;1.98;;
47894;SDS011;33653;52.302;8.134;2023-05-16T04:59:40;6.20;;;1.90;;
47894;SDS011;33653;52.302;8.134;2023-05-16T05:02:09;4.88;;;2.08;;
47894;SDS011;33653;52.302;8.134;2023-05-16T05:04:37;4.18;;;1.98;;
47894;SDS011;33653;52.302;8.134;2023-05-16T05:07:05;7.05;;;1.77;;
47894;SDS011;33653;52.302;8.134;2023-05-16T05:09:34;5.63;;;1.85;;
47894;SDS011;33653;52.302;8.134;2023-05-16T05:12:02;2.92;;;1.50;;
47894;SDS011;33653;52.302;8.134;2023-05-16T05:14:31;7.30;;;2.10;;
47894;SDS011;33653;52.302;8.134;2023-05-16T05:16:59;4.68;;;1.60;;
47894;SDS011;33653;52.302;8.134;2023-05-16T05:19:28;6.78;;;2.05;;
47894;SDS011;33653;52.302;8.134;2023-05-16T05:21:56;9.23;;;2.13;;
47894;SDS011;33653;52.302;8.134;2023-05-16T05:24:25;4.57;;;1.65;;
47894;SDS011;33653;52.302;8.134;2023-05-16T05:26:54;3.08;;;1.50;;
47894;SDS011;33653;52.302;8.134;2023-05-16T05:29:22;1.90;;;1.42;;
47894;SDS011;33653;52.302;8.134;2023-05-16T05:31:52;8.27;;;2.20;;
47894;SDS011;33653;52.302;8.134;2023-05-16T05:34:30;4.73;;;1.93;;
47894;SDS011;33653;52.302;8.134;2023-05-16T05:39:53;5.40;;;1.67;;
47894;SDS011;33653;52.302;8.134;2023-05-16T05:42:21;14.50;;;2.17;;
47894;SDS011;33653;52.302;8.134;2023-05-16T05:44:50;8.80;;;2.00;;
47894;SDS011;33653;52.302;8.134;2023-05-16T05:47:18;6.10;;;2.00;;
47894;SDS011;33653;52.302;8.134;2023-05-16T05:49:46;7.20;;;1.85;;
47894;SDS011;33653;52.302;8.134;2023-05-16T05:52:15;1.90;;;1.60;;
47894;SDS011;33653;52.302;8.134;2023-05-16T05:54:43;6.18;;;1.65;;
47894;SDS011;33653;52.302;8.134;2023-05-16T05:57:11;6.03;;;1.63;;
47894;SDS011;33653;52.302;8.134;2023-05-16T05:59:39;4.45;;;1.88;;
47894;SDS011;33653;52.302;8.134;2023-05-16T06:02:08;6.55;;;2.10;;
47894;SDS011;33653;52.302;8.134;2023-05-16T06:04:36;4.90;;;1.63;;
47894;SDS011;33653;52.302;8.134;2023-05-16T06:07:04;7.10;;;2.83;;
47894;SDS011;33653;52.302;8.134;2023-05-16T06:09:33;3.08;;;1.45;;
47894;SDS011;33653;52.302;8.134;2023-05-16T06:12:01;5.88;;;1.77;;
47894;SDS011;33653;52.302;8.134;2023-05-16T06:14:30;16.42;;;2.38;;
47894;SDS011;33653;52.302;8.134;2023-05-16T06:16:58;4.97;;;1.95;;
47894;SDS011;33653;52.302;8.134;2023-05-16T06:19:28;10.10;;;2.42;;
47894;SDS011;33653;52.302;8.134;2023-05-16T06:22:06;4.20;;;1.80;;
47894;SDS011;33653;52.302;8.134;2023-05-16T06:24:46;2.25;;;1.98;;
47894;SDS011;33653;52.302;8.134;2023-05-16T06:27:15;4.32;;;1.73;;
47894;SDS011;33653;52.302;8.134;2023-05-16T06:29:43;4.72;;;2.08;;
47894;SDS011;33653;52.302;8.134;2023-05-16T06:32:12;6.50;;;1.85;;
47894;SDS011;33653;52.302;8.134;2023-05-16T06:34:40;6.32;;;1.48;;
47894;SDS011;33653;52.302;8.134;2023-05-16T06:37:08;6.68;;;2.05;;
47894;SDS011;33653;52.302;8.134;2023-05-16T06:39:37;6.38;;;1.88;;
47894;SDS011;33653;52.302;8.134;2023-05-16T06:42:05;9.05;;;1.70;;
47894;SDS011;33653;52.302;8.134;2023-05-16T06:44:36;7.88;;;1.40;;
47894;SDS011;33653;52.302;8.134;2023-05-16T06:47:04;2.42;;;1.50;;
47894;SDS011;33653;52.302;8.134;2023-05-16T06:49:33;2.83;;;1.20;;
47894;SDS011;33653;52.302;8.134;2023-05-16T06:52:02;5.75;;;1.80;;
47894;SDS011;33653;52.302;8.134;2023-05-16T06:54:30;1.42;;;1.05;;
47894;SDS011;33653;52.302;8.134;2023-05-16T06:56:59;3.42;;;1.55;;
47894;SDS011;33653;52.302;8.134;2023-05-16T06:59:27;3.78;;;1.38;;
47894;SDS011;33653;52.302;8.134;2023-05-16T07:01:58;3.70;;;1.58;;
47894;SDS011;33653;52.302;8.134;2023-05-16T07:04:27;4.95;;;1.67;;
47894;SDS011;33653;52.302;8.134;2023-05-16T07:06:55;6.30;;;2.17;;
47894;SDS011;33653;52.302;8.134;2023-05-16T07:09:23;8.80;;;1.73;;
47894;SDS011;33653;52.302;8.134;2023-05-16T07:11:52;7.78;;;1.70;;
47894;SDS011;33653;52.302;8.134;2023-05-16T07:14:20;4.03;;;1.48;;
47894;SDS011;33653;52.302;8.134;2023-05-16T07:16:48;11.70;;;2.63;;
47894;SDS011;33653;52.302;8.134;2023-05-16T07:19:17;3.50;;;1.52;;
47894;SDS011;33653;52.302;8.134;2023-05-16T07:21:45;10.50;;;1.85;;
47894;SDS011;33653;52.302;8.134;2023-05-16T07:24:13;5.68;;;1.52;;
47894;SDS011;33653;52.302;8.134;2023-05-16T07:26:47;2.60;;;1.60;;
47894;SDS011;33653;52.302;8.134;2023-05-16T07:29:15;6.45;;;1.65;;
47894;SDS011;33653;52.302;8.134;2023-05-16T07:31:45;8.90;;;1.73;;
47894;SDS011;33653;52.302;8.134;2023-05-16T07:34:14;5.73;;;1.27;;
47894;SDS011;33653;52.302;8.134;2023-05-16T07:36:43;3.67;;;1.35;;
47894;SDS011;33653;52.302;8.134;2023-05-16T07:39:11;6.70;;;1.65;;
47894;SDS011;33653;52.302;8.134;2023-05-16T07:41:40;4.72;;;1.55;;
47894;SDS011;33653;52.302;8.134;2023-05-16T07:44:09;7.10;;;1.70;;
47894;SDS011;33653;52.302;8.134;2023-05-16T07:46:37;6.82;;;1.63;;
47894;SDS011;33653;52.302;8.134;2023-05-16T07:49:06;6.95;;;1.40;;
47894;SDS011;33653;52.302;8.134;2023-05-16T07:51:34;12.30;;;1.52;;
47894;SDS011;33653;52.302;8.134;2023-05-16T07:54:03;3.13;;;1.73;;
47894;SDS011;33653;52.302;8.134;2023-05-16T07:56:32;6.20;;;1.33;;
47894;SDS011;33653;52.302;8.134;2023-05-16T07:59:00;3.28;;;1.58;;
47894;SDS011;33653;52.302;8.134;2023-05-16T08:01:32;3.20;;;1.13;;
47894;SDS011;33653;52.302;8.134;2023-05-16T08:04:00;3.95;;;1.15;;
47894;SDS011;33653;52.302;8.134;2023-05-16T08:06:28;5.70;;;1.55;;
47894;SDS011;33653;52.302;8.134;2023-05-16T08:08:57;2.60;;;1.33;;
47894;SDS011;33653;52.302;8.134;2023-05-16T08:11:26;6.60;;;1.75;;
47894;SDS011;33653;52.302;8.134;2023-05-16T08:13:55;6.15;;;1.40;;
47894;SDS011;33653;52.302;8.134;2023-05-16T08:16:23;1.63;;;1.27;;
47894;SDS011;33653;52.302;8.134;2023-05-16T08:18:54;4.65;;;1.20;;
47894;SDS011;33653;52.302;8.134;2023-05-16T08:21:23;1.92;;;1.08;;
47894;SDS011;33653;52.302;8.134;2023-05-16T08:23:51;3.20;;;1.23;;
47894;SDS011;33653;52.302;8.134;2023-05-16T08:26:20;1.17;;;0.93;;
47894;SDS011;33653;52.302;8.134;2023-05-16T08:28:49;3.85;;;1.20;;
47894;SDS011;33653;52.302;8.134;2023-05-16T08:31:17;9.30;;;1.40;;
47894;SDS011;33653;52.302;8.134;2023-05-16T08:33:46;7.82;;;1.45;;
47894;SDS011;33653;52.302;8.134;2023-05-16T08:36:14;4.68;;;1.35;;
47894;SDS011;33653;52.302;8.134;2023-05-16T08:38:46;3.95;;;1.20;;
47894;SDS011;33653;52.302;8.134;2023-05-16T08:41:16;4.82;;;1.27;;
47894;SDS011;33653;52.302;8.134;2023-05-16T08:43:44;2.92;;;1.33;;
47894;SDS011;33653;52.302;8.134;2023-05-16T08:46:13;2.75;;;1.40;;
47894;SDS011;33653;52.302;8.134;2023-05-16T08:48:42;2.47;;;1.23;;
47894;SDS011;33653;52.302;8.134;2023-05-16T08:51:13;3.15;;;1.00;;
47894;SDS011;33653;52.302;8.134;2023-05-16T08:53:44;3.78;;;1.60;;
47894;SDS011;33653;52.302;8.134;2023-05-16T08:56:20;1.42;;;1.33;;
47894;SDS011;33653;52.302;8.134;2023-05-16T08:58:50;5.28;;;0.90;;
47894;SDS011;33653;52.302;8.134;2023-05-16T09:01:21;1.58;;;1.20;;
47894;SDS011;33653;52.302;8.134;2023-05-16T09:03:50;2.10;;;1.30;;
47894;SDS011;33653;52.302;8.134;2023-05-16T09:06:19;2.95;;;1.25;;
47894;SDS011;33653;52.302;8.134;2023-05-16T09:08:47;3.03;;;1.35;;
47894;SDS011;33653;52.302;8.134;2023-05-16T09:11:16;2.03;;;1.05;;
47894;SDS011;33653;52.302;8.134;2023-05-16T09:13:44;2.00;;;1.13;;
47894;SDS011;33653;52.302;8.134;2023-05-16T09:16:15;7.82;;;1.20;;
47894;SDS011;33653;52.302;8.134;2023-05-16T09:21:26;2.70;;;1.00;;
47894;SDS011;33653;52.302;8.134;2023-05-16T09:24:06;2.40;;;1.05;;
47894;SDS011;33653;52.302;8.134;2023-05-16T09:26:36;2.88;;;1.17;;
47894;SDS011;33653;52.302;8.134;2023-05-16T09:29:12;3.03;;;1.13;;
47894;SDS011;33653;52.302;8.134;2023-05-16T09:31:40;2.30;;;1.27;;
47894;SDS011;33653;52.302;8.134;2023-05-16T09:34:09;1.67;;;1.00;;
47894;SDS011;33653;52.302;8.134;2023-05-16T09:36:38;5.80;;;1.33;;
47894;SDS011;33653;52.302;8.134;2023-05-16T09:39:10;4.38;;;1.30;;
47894;SDS011;33653;52.302;8.134;2023-05-16T09:41:42;2.33;;;0.93;;
47894;SDS011;33653;52.302;8.134;2023-05-16T09:44:11;4.18;;;1.23;;
47894;SDS011;33653;52.302;8.134;2023-05-16T09:46:39;3.05;;;1.15;;
47894;SDS011;33653;52.302;8.134;2023-05-16T09:49:10;2.22;;;0.85;;
47894;SDS011;33653;52.302;8.134;2023-05-16T09:51:39;3.70;;;0.90;;
47894;SDS011;33653;52.302;8.134;2023-05-16T09:54:08;1.33;;;0.80;;
47894;SDS011;33653;52.302;8.134;2023-05-16T09:56:54;2.95;;;0.70;;
47894;SDS011;33653;52.302;8.134;2023-05-16T09:59:23;3.85;;;1.13;;
47894;SDS011;33653;52.302;8.134;2023-05-16T10:01:51;3.53;;;1.25;;
47894;SDS011;33653;52.302;8.134;2023-05-16T10:04:20;3.90;;;0.75;;
47894;SDS011;33653;52.302;8.134;2023-05-16T10:06:49;4.07;;;1.23;;
47894;SDS011;33653;52.302;8.134;2023-05-16T10:09:18;2.10;;;1.17;;
47894;SDS011;33653;52.302;8.134;2023-05-16T10:11:48;3.92;;;1.15;;
47894;SDS011;33653;52.302;8.134;2023-05-16T10:14:19;2.63;;;1.20;;
47894;SDS011;33653;52.302;8.134;2023-05-16T10:16:49;1.58;;;0.80;;
47894;SDS011;33653;52.302;8.134;2023-05-16T10:19:19;4.55;;;1.02;;
47894;SDS011;33653;52.302;8.134;2023-05-16T10:21:53;2.83;;;1.13;;
47894;SDS011;33653;52.302;8.134;2023-05-16T10:24:28;7.53;;;1.23;;
47894;SDS011;33653;52.302;8.134;2023-05-16T10:27:11;2.08;;;0.93;;
47894;SDS011;33653;52.302;8.134;2023-05-16T10:29:40;3.38;;;1.10;;
47894;SDS011;33653;52.302;8.134;2023-05-16T10:32:22;2.63;;;1.27;;
47894;SDS011;33653;52.302;8.134;2023-05-16T10:34:51;2.38;;;1.10;;
47894;SDS011;33653;52.302;8.134;2023-05-16T10:37:22;4.47;;;1.20;;
47894;SDS011;33653;52.302;8.134;2023-05-16T10:39:51;1.90;;;1.10;;
47894;SDS011;33653;52.302;8.134;2023-05-16T10:42:20;2.17;;;0.98;;
47894;SDS011;33653;52.302;8.134;2023-05-16T10:44:48;3.25;;;1.20;;
47894;SDS011;33653;52.302;8.134;2023-05-16T10:47:31;2.67;;;1.20;;
47894;SDS011;33653;52.302;8.134;2023-05-16T10:50:00;1.55;;;0.70;;
47894;SDS011;33653;52.302;8.134;2023-05-16T10:52:32;3.05;;;1.05;;
47894;SDS011;33653;52.302;8.134;2023-05-16T10:55:02;1.95;;;0.93;;
47894;SDS011;33653;52.302;8.134;2023-05-16T10:57:31;2.33;;;0.90;;
47894;SDS011;33653;52.302;8.134;2023-05-16T11:00:02;4.18;;;0.98;;
47894;SDS011;33653;52.302;8.134;2023-05-16T11:02:39;1.10;;;0.68;;
47894;SDS011;33653;52.302;8.134;2023-05-16T11:05:11;4.82;;;0.65;;
47894;SDS011;33653;52.302;8.134;2023-05-16T11:07:45;3.13;;;1.38;;
47894;SDS011;33653;52.302;8.134;2023-05-16T11:10:33;1.55;;;0.90;;
47894;SDS011;33653;52.302;8.134;2023-05-16T11:13:02;1.35;;;0.80;;
47894;SDS011;33653;52.302;8.134;2023-05-16T11:15:34;2.60;;;1.15;;
47894;SDS011;33653;52.302;8.134;2023-05-16T11:20:36;1.35;;;0.70;;
47894;SDS011;33653;52.302;8.134;2023-05-16T11:25:53;1.95;;;1.08;;
47894;SDS011;33653;52.302;8.134;2023-05-16T11:28:24;1.10;;;0.77;;
47894;SDS011;33653;52.302;8.134;2023-05-16T11:30:54;1.70;;;0.80;;
47894;SDS011;33653;52.302;8.134;2023-05-16T11:33:26;1.65;;;0.80;;
47894;SDS011;33653;52.302;8.134;2023-05-16T11:38:41;4.80;;;1.17;;
47894;SDS011;33653;52.302;8.134;2023-05-16T11:41:10;2.22;;;1.00;;
47894;SDS011;33653;52.302;8.134;2023-05-16T11:43:43;3.90;;;0.80;;
47894;SDS011;33653;52.302;8.134;2023-05-16T11:46:13;1.38;;;0.75;;
47894;SDS011;33653;52.302;8.134;2023-05-16T11:51:13;0.80;;;0.60;;
47894;SDS011;33653;52.302;8.134;2023-05-16T11:53:48;3.25;;;0.95;;
47894;SDS011;33653;52.302;8.134;2023-05-16T11:56:16;3.53;;;1.33;;
47894;SDS011;33653;52.302;8.134;2023-05-16T11:58:48;2.08;;;0.98;;
47894;SDS011;33653;52.302;8.134;2023-05-16T12:01:16;4.20;;;0.73;;
47894;SDS011;33653;52.302;8.134;2023-05-16T12:03:52;1.45;;;0.77;;
47894;SDS011;33653;52.302;8.134;2023-05-16T12:06:24;1.67;;;0.75;;
47894;SDS011;33653;52.302;8.134;2023-05-16T12:08:53;1.73;;;0.63;;
47894;SDS011;33653;52.302;8.134;2023-05-16T12:11:24;1.90;;;0.60;;
47894;SDS011;33653;52.302;8.134;2023-05-16T12:13:53;1.13;;;0.70;;
47894;SDS011;33653;52.302;8.134;2023-05-16T12:16:21;1.75;;;0.75;;
47894;SDS011;33653;52.302;8.134;2023-05-16T12:18:50;2.65;;;0.77;;
47894;SDS011;33653;52.302;8.134;2023-05-16T12:21:19;1.92;;;0.65;;
47894;SDS011;33653;52.302;8.134;2023-05-16T12:23:47;2.50;;;0.95;;
47894;SDS011;33653;52.302;8.134;2023-05-16T12:26:22;1.35;;;0.73;;
47894;SDS011;33653;52.302;8.134;2023-05-16T12:28:59;3.88;;;0.90;;
47894;SDS011;33653;52.302;8.134;2023-05-16T12:31:34;1.67;;;1.00;;
47894;SDS011;33653;52.302;8.134;2023-05-16T12:34:17;1.85;;;1.20;;
47894;SDS011;33653;52.302;8.134;2023-05-16T12:36:51;0.82;;;0.70;;
47894;SDS011;33653;52.302;8.134;2023-05-16T12:39:20;2.65;;;0.95;;
47894;SDS011;33653;52.302;8.134;2023-05-16T12:41:49;3.03;;;0.77;;
47894;SDS011;33653;52.302;8.134;2023-05-16T12:44:18;1.25;;;0.70;;
47894;SDS011;33653;52.302;8.134;2023-05-16T12:46:49;1.55;;;0.90;;
47894;SDS011;33653;52.302;8.134;2023-05-16T12:49:21;1.50;;;0.90;;
47894;SDS011;33653;52.302;8.134;2023-05-16T12:51:50;0.90;;;0.73;;
47894;SDS011;33653;52.302;8.134;2023-05-16T12:56:49;2.10;;;0.88;;
47894;SDS011;33653;52.302;8.134;2023-05-16T12:59:17;2.28;;;1.15;;
47894;SDS011;33653;52.302;8.134;2023-05-16T13:01:46;2.83;;;1.23;;
47894;SDS011;33653;52.302;8.134;2023-05-16T13:04:15;0.57;;;0.50;;
47894;SDS011;33653;52.302;8.134;2023-05-16T13:06:46;2.03;;;0.98;;
47894;SDS011;33653;52.302;8.134;2023-05-16T13:09:26;5.88;;;1.15;;
47894;SDS011;33653;52.302;8.134;2023-05-16T13:11:59;2.60;;;0.88;;
47894;SDS011;33653;52.302;8.134;2023-05-16T13:14:27;2.60;;;0.80;;
47894;SDS011;33653;52.302;8.134;2023-05-16T13:16:56;7.65;;;1.23;;
47894;SDS011;33653;52.302;8.134;2023-05-16T13:19:24;1.15;;;0.80;;
47894;SDS011;33653;52.302;8.134;2023-05-16T13:21:53;0.98;;;0.75;;
47894;SDS011;33653;52.302;8.134;2023-05-16T13:24:22;2.55;;;0.80;;
47894;SDS011;33653;52.302;8.134;2023-05-16T13:26:50;3.97;;;0.77;;
47894;SDS011;33653;52.302;8.134;2023-05-16T13:29:18;2.83;;;0.98;;
47894;SDS011;33653;52.302;8.134;2023-05-16T13:31:47;1.90;;;0.68;;
47894;SDS011;33653;52.302;8.134;2023-05-16T13:34:15;2.33;;;0.75;;
47894;SDS011;33653;52.302;8.134;2023-05-16T13:36:43;3.63;;;0.95;;
47894;SDS011;33653;52.302;8.134;2023-05-16T13:39:21;1.10;;;0.73;;
47894;SDS011;33653;52.302;8.134;2023-05-16T13:41:49;2.70;;;0.90;;
47894;SDS011;33653;52.302;8.134;2023-05-16T13:44:19;2.13;;;0.98;;
47894;SDS011;33653;52.302;8.134;2023-05-16T13:46:48;3.83;;;0.82;;
47894;SDS011;33653;52.302;8.134;2023-05-16T13:49:17;3.65;;;1.25;;
47894;SDS011;33653;52.302;8.134;2023-05-16T13:51:45;3.85;;;0.95;;
47894;SDS011;33653;52.302;8.134;2023-05-16T13:54:14;4.03;;;1.02;;
47894;SDS011;33653;52.302;8.134;2023-05-16T13:56:43;5.28;;;1.40;;
47894;SDS011;33653;52.302;8.134;2023-05-16T13:59:11;0.88;;;0.80;;
47894;SDS011;33653;52.302;8.134;2023-05-16T14:01:50;2.72;;;0.77;;
47894;SDS011;33653;52.302;8.134;2023-05-16T14:04:18;3.22;;;1.05;;
47894;SDS011;33653;52.302;8.134;2023-05-16T14:06:47;1.60;;;0.70;;
47894;SDS011;33653;52.302;8.134;2023-05-16T14:09:15;1.73;;;0.77;;
47894;SDS011;33653;52.302;8.134;2023-05-16T14:11:44;2.50;;;0.90;;
47894;SDS011;33653;52.302;8.134;2023-05-16T14:14:13;1.85;;;0.80;;
47894;SDS011;33653;52.302;8.134;2023-05-16T14:16:41;1.33;;;0.80;;
47894;SDS011;33653;52.302;8.134;2023-05-16T14:19:12;2.55;;;0.90;;
47894;SDS011;33653;52.302;8.134;2023-05-16T14:21:44;2.17;;;0.90;;
47894;SDS011;33653;52.302;8.134;2023-05-16T14:24:12;3.67;;;1.00;;
47894;SDS011;33653;52.302;8.134;2023-05-16T14:26:42;2.35;;;0.90;;
47894;SDS011;33653;52.302;8.134;2023-05-16T14:29:10;2.22;;;1.10;;
47894;SDS011;33653;52.302;8.134;2023-05-16T14:31:39;1.27;;;0.88;;
47894;SDS011;33653;52.302;8.134;2023-05-16T14:34:08;3.22;;;1.10;;
47894;SDS011;33653;52.302;8.134;2023-05-16T14:36:36;1.55;;;1.10;;
47894;SDS011;33653;52.302;8.134;2023-05-16T14:39:04;4.32;;;0.93;;
47894;SDS011;33653;52.302;8.134;2023-05-16T14:41:34;1.50;;;1.10;;
47894;SDS011;33653;52.302;8.134;2023-05-16T14:44:03;1.45;;;0.82;;
47894;SDS011;33653;52.302;8.134;2023-05-16T14:46:32;2.60;;;1.25;;
47894;SDS011;33653;52.302;8.134;2023-05-16T14:49:00;2.80;;;1.00;;
47894;SDS011;33653;52.302;8.134;2023-05-16T14:51:29;1.15;;;0.85;;
47894;SDS011;33653;52.302;8.134;2023-05-16T14:53:58;4.57;;;1.10;;
47894;SDS011;33653;52.302;8.134;2023-05-16T14:56:26;2.33;;;0.98;;
47894;SDS011;33653;52.302;8.134;2023-05-16T14:58:55;1.13;;;0.90;;
47894;SDS011;33653;52.302;8.134;2023-05-16T15:01:23;4.28;;;0.75;;
47894;SDS011;33653;52.302;8.134;2023-05-16T15:03:52;1.15;;;0.98;;
47894;SDS011;33653;52.302;8.134;2023-05-16T15:06:23;1.58;;;0.80;;
47894;SDS011;33653;52.302;8.134;2023-05-16T15:08:52;3.92;;;1.00;;
47894;SDS011;33653;52.302;8.134;2023-05-16T15:11:20;3.50;;;0.82;;
47894;SDS011;33653;52.302;8.134;2023-05-16T15:13:49;3.45;;;1.17;;
47894;SDS011;33653;52.302;8.134;2023-05-16T15:16:17;2.00;;;0.90;;
47894;SDS011;33653;52.302;8.134;2023-05-16T15:18:46;3.03;;;1.05;;
47894;SDS011;33653;52.302;8.134;2023-05-16T15:21:14;4.63;;;1.35;;
47894;SDS011;33653;52.302;8.134;2023-05-16T15:23:43;5.00;;;1.20;;
47894;SDS011;33653;52.302;8.134;2023-05-16T15:26:11;3.55;;;1.15;;
47894;SDS011;33653;52.302;8.134;2023-05-16T15:28:39;2.13;;;1.00;;
47894;SDS011;33653;52.302;8.134;2023-05-16T15:31:08;4.32;;;1.10;;
47894;SDS011;33653;52.302;8.134;2023-05-16T15:33:36;3.72;;;1.10;;
47894;SDS011;33653;52.302;8.134;2023-05-16T15:36:04;1.75;;;0.80;;
47894;SDS011;33653;52.302;8.134;2023-05-16T15:38:33;1.90;;;1.08;;
47894;SDS011;33653;52.302;8.134;2023-05-16T15:41:02;3.55;;;1.23;;
47894;SDS011;33653;52.302;8.134;2023-05-16T15:43:51;2.97;;;1.13;;
47894;SDS011;33653;52.302;8.134;2023-05-16T15:46:20;3.13;;;1.48;;